createdAt,value
2019-03-05T00:00:12.686Z,19.67
2019-03-05T00:01:12.613Z,19.67
2019-03-05T00:02:12.795Z,19.67
2019-03-05T00:03:12.904Z,19.67
2019-03-05T00:04:12.725Z,19.66
2019-03-05T00:05:12.667Z,19.67
2019-03-05T00:06:12.743Z,19.66
2019-03-05T00:07:12.836Z,19.62
2019-03-05T00:08:12.726Z,19.62
2019-03-05T00:09:12.519Z,19.62
2019-03-05T00:10:12.709Z,19.61
2019-03-05T00:11:12.698Z,19.62
2019-03-05T00:12:12.554Z,19.61
2019-03-05T00:13:12.667Z,19.61
2019-03-05T00:14:12.735Z,19.62
2019-03-05T00:15:12.479Z,19.62
2019-03-05T00:16:12.654Z,19.62
2019-03-05T00:17:12.676Z,19.6
2019-03-05T00:18:12.645Z,19.59
2019-03-05T00:19:12.687Z,19.58
2019-03-05T00:20:12.841Z,19.6
2019-03-05T00:21:13.023Z,19.58
2019-03-05T00:22:13.129Z,19.58
2019-03-05T00:23:12.828Z,19.58
2019-03-05T00:24:12.550Z,19.59
2019-03-05T00:25:12.715Z,19.59
2019-03-05T00:26:12.698Z,19.58
2019-03-05T00:27:12.551Z,19.55
2019-03-05T00:28:12.676Z,19.58
2019-03-05T00:29:12.708Z,19.57
2019-03-05T00:30:12.559Z,19.55
2019-03-05T00:31:12.681Z,19.56
2019-03-05T00:32:12.848Z,19.54
2019-03-05T00:33:12.583Z,19.53
2019-03-05T00:34:12.656Z,19.53
2019-03-05T00:35:12.712Z,19.56
2019-03-05T00:36:12.629Z,19.54
2019-03-05T00:37:12.779Z,19.53
2019-03-05T00:38:12.818Z,19.54
2019-03-05T00:39:12.609Z,19.52
2019-03-05T00:40:12.753Z,19.53
2019-03-05T00:41:12.896Z,19.53
2019-03-05T00:42:12.658Z,19.53
2019-03-05T00:43:12.950Z,19.52
2019-03-05T00:44:12.556Z,19.51
2019-03-05T00:45:12.646Z,19.5
2019-03-05T00:46:12.830Z,19.51
2019-03-05T00:47:12.567Z,19.5
2019-03-05T00:48:12.647Z,19.51
2019-03-05T00:49:12.709Z,19.5
2019-03-05T00:50:12.612Z,19.51
2019-03-05T00:51:25.479Z,19.52
2019-03-05T00:52:12.773Z,19.5
2019-03-05T00:53:12.579Z,19.5
2019-03-05T00:54:12.619Z,19.47
2019-03-05T00:55:12.684Z,19.48
2019-03-05T00:56:12.576Z,19.47
2019-03-05T00:57:12.657Z,19.47
2019-03-05T00:58:12.782Z,19.48
2019-03-05T00:59:12.572Z,19.48
2019-03-05T01:00:12.613Z,19.46
2019-03-05T01:01:12.775Z,19.46
2019-03-05T01:02:12.571Z,19.47
2019-03-05T01:03:12.674Z,19.45
2019-03-05T01:04:13.174Z,19.47
2019-03-05T01:05:12.653Z,19.47
2019-03-05T01:06:12.610Z,19.46
2019-03-05T01:07:12.804Z,19.44
2019-03-05T01:08:12.629Z,19.44
2019-03-05T01:09:12.664Z,19.45
2019-03-05T01:10:12.802Z,19.47
2019-03-05T01:11:12.878Z,19.46
2019-03-05T01:12:12.626Z,19.43
2019-03-05T01:13:12.823Z,19.42
2019-03-05T01:14:12.609Z,19.44
2019-03-05T01:15:12.671Z,19.41
2019-03-05T01:16:12.833Z,19.41
2019-03-05T01:17:12.576Z,19.43
2019-03-05T01:18:12.667Z,19.42
2019-03-05T01:19:12.801Z,19.42
2019-03-05T01:20:12.621Z,19.43
2019-03-05T01:21:12.684Z,19.4
2019-03-05T01:22:12.536Z,19.4
2019-03-05T01:23:12.677Z,19.38
2019-03-05T01:24:13.055Z,19.4
2019-03-05T01:25:12.532Z,19.4
2019-03-05T01:26:12.973Z,19.4
2019-03-05T01:27:12.817Z,19.4
2019-03-05T01:28:12.588Z,19.39
2019-03-05T01:29:12.722Z,19.38
2019-03-05T01:30:12.811Z,19.4
2019-03-05T01:31:12.647Z,19.39
2019-03-05T01:32:12.741Z,19.39
2019-03-05T01:33:12.697Z,19.37
2019-03-05T01:34:12.553Z,19.4
2019-03-05T01:35:12.727Z,19.38
2019-03-05T01:36:12.712Z,19.37
2019-03-05T01:37:12.574Z,19.37
2019-03-05T01:38:12.679Z,19.37
2019-03-05T01:39:12.718Z,19.36
2019-03-05T01:40:12.652Z,19.35
2019-03-05T01:41:12.636Z,19.38
2019-03-05T01:42:12.804Z,19.37
2019-03-05T01:43:12.528Z,19.38
2019-03-05T01:44:12.686Z,19.35
2019-03-05T01:45:12.883Z,19.35
2019-03-05T01:46:12.574Z,19.35
2019-03-05T01:47:12.850Z,19.31
2019-03-05T01:48:12.570Z,19.3
2019-03-05T01:49:12.597Z,19.32
2019-03-05T01:50:12.751Z,19.3
2019-03-05T01:51:12.614Z,19.29
2019-03-05T01:52:12.590Z,19.33
2019-03-05T01:53:12.741Z,19.33
2019-03-05T01:54:12.637Z,19.32
2019-03-05T01:55:12.685Z,19.3
2019-03-05T01:56:12.791Z,19.32
2019-03-05T01:57:12.594Z,19.29
2019-03-05T01:58:12.595Z,19.31
2019-03-05T01:59:12.633Z,19.29
2019-03-05T02:00:12.644Z,19.29
2019-03-05T02:01:12.576Z,19.3
2019-03-05T02:02:12.774Z,19.31
2019-03-05T02:03:12.584Z,19.29
2019-03-05T02:04:12.595Z,19.29
2019-03-05T02:05:12.705Z,19.3
2019-03-05T02:06:12.603Z,19.28
2019-03-05T02:07:12.585Z,19.28
2019-03-05T02:08:12.748Z,19.28
2019-03-05T02:09:12.976Z,19.27
2019-03-05T02:10:12.688Z,19.28
2019-03-05T02:11:12.754Z,19.29
2019-03-05T02:12:12.552Z,19.28
2019-03-05T02:13:12.591Z,19.27
2019-03-05T02:14:12.829Z,19.29
2019-03-05T02:15:12.646Z,19.25
2019-03-05T02:16:12.687Z,19.26
2019-03-05T02:17:12.698Z,19.25
2019-03-05T02:18:12.659Z,19.25
2019-03-05T02:19:12.691Z,19.25
2019-03-05T02:20:12.539Z,19.25
2019-03-05T02:21:12.579Z,19.24
2019-03-05T02:22:12.656Z,19.23
2019-03-05T02:23:12.492Z,19.27
2019-03-05T02:24:12.658Z,19.24
2019-03-05T02:25:12.677Z,19.22
2019-03-05T02:26:12.497Z,19.21
2019-03-05T02:27:12.710Z,19.25
2019-03-05T02:28:12.688Z,19.24
2019-03-05T02:29:12.464Z,19.21
2019-03-05T02:30:12.586Z,19.22
2019-03-05T02:31:12.661Z,19.23
2019-03-05T02:32:12.542Z,19.22
2019-03-05T02:33:12.829Z,19.22
2019-03-05T02:34:12.747Z,19.2
2019-03-05T02:35:12.681Z,19.21
2019-03-05T02:36:12.637Z,19.17
2019-03-05T02:37:12.697Z,19.18
2019-03-05T02:38:12.637Z,19.21
2019-03-05T02:39:12.676Z,19.18
2019-03-05T02:40:12.692Z,19.2
2019-03-05T02:41:12.528Z,19.2
2019-03-05T02:42:12.699Z,19.18
2019-03-05T02:43:12.669Z,19.21
2019-03-05T02:44:12.569Z,19.2
2019-03-05T02:45:12.710Z,19.2
2019-03-05T02:46:12.752Z,19.2
2019-03-05T02:47:12.820Z,19.17
2019-03-05T02:48:12.686Z,19.2
2019-03-05T02:49:12.753Z,19.17
2019-03-05T02:50:12.574Z,19.17
2019-03-05T02:51:12.727Z,19.18
2019-03-05T02:52:12.696Z,19.17
2019-03-05T02:53:12.593Z,19.18
2019-03-05T02:54:12.695Z,19.18
2019-03-05T02:55:12.497Z,19.17
2019-03-05T02:56:12.629Z,19.16
2019-03-05T02:57:12.770Z,19.16
2019-03-05T02:58:12.508Z,19.16
2019-03-05T02:59:12.687Z,19.17
2019-03-05T03:00:12.750Z,19.15
2019-03-05T03:01:12.596Z,19.15
2019-03-05T03:02:12.604Z,19.14
2019-03-05T03:03:12.687Z,19.15
2019-03-05T03:04:12.544Z,19.15
2019-03-05T03:05:12.552Z,19.14
2019-03-05T03:06:12.741Z,19.13
2019-03-05T03:07:12.602Z,19.13
2019-03-05T03:08:12.595Z,19.12
2019-03-05T03:09:12.719Z,19.14
2019-03-05T03:10:12.591Z,19.12
2019-03-05T03:11:12.686Z,19.13
2019-03-05T03:12:12.989Z,19.13
2019-03-05T03:13:12.609Z,19.12
2019-03-05T03:14:12.618Z,19.11
2019-03-05T03:15:12.770Z,19.1
2019-03-05T03:16:12.595Z,19.1
2019-03-05T03:17:12.736Z,19.1
2019-03-05T03:18:12.840Z,19.09
2019-03-05T03:19:12.642Z,19.09
2019-03-05T03:20:12.701Z,19.1
2019-03-05T03:21:12.596Z,19.08
2019-03-05T03:22:12.688Z,19.1
2019-03-05T03:23:12.760Z,19.08
2019-03-05T03:24:12.543Z,19.1
2019-03-05T03:25:12.755Z,19.09
2019-03-05T03:26:12.703Z,19.09
2019-03-05T03:27:12.474Z,19.07
2019-03-05T03:28:12.667Z,19.09
2019-03-05T03:29:12.623Z,19.08
2019-03-05T03:30:12.607Z,19.1
2019-03-05T03:31:12.720Z,19.08
2019-03-05T03:32:12.855Z,19.08
2019-03-05T03:33:12.764Z,19.06
2019-03-05T03:34:12.735Z,19.09
2019-03-05T03:35:12.898Z,19.06
2019-03-05T03:36:12.519Z,19.06
2019-03-05T03:37:12.704Z,19.07
2019-03-05T03:38:12.532Z,19.03
2019-03-05T03:39:12.576Z,19.05
2019-03-05T03:40:12.768Z,19.05
2019-03-05T03:41:12.567Z,19.06
2019-03-05T03:42:12.716Z,19.05
2019-03-05T03:43:12.754Z,19.05
2019-03-05T03:44:12.531Z,19.03
2019-03-05T03:45:12.740Z,19.02
2019-03-05T03:46:12.736Z,19.02
2019-03-05T03:47:12.667Z,19.01
2019-03-05T03:48:12.616Z,19.05
2019-03-05T03:49:12.661Z,19.05
2019-03-05T03:50:12.566Z,19.03
2019-03-05T03:51:12.815Z,19.02
2019-03-05T03:52:12.408Z,19.02
2019-03-05T03:53:12.643Z,19.01
2019-03-05T03:54:12.974Z,19.02
2019-03-05T03:55:12.818Z,19.02
2019-03-05T03:56:12.575Z,19.03
2019-03-05T03:57:12.616Z,19.01
2019-03-05T03:58:12.746Z,18.98
2019-03-05T03:59:12.761Z,19
2019-03-05T04:00:12.665Z,19.01
2019-03-05T04:01:12.506Z,19
2019-03-05T04:02:12.630Z,18.99
2019-03-05T04:03:12.650Z,19
2019-03-05T04:04:12.517Z,19.02
2019-03-05T04:05:12.655Z,18.99
2019-03-05T04:06:12.693Z,18.99
2019-03-05T04:07:12.503Z,18.99
2019-03-05T04:08:12.628Z,18.99
2019-03-05T04:09:12.717Z,18.98
2019-03-05T04:10:12.631Z,18.98
2019-03-05T04:11:12.667Z,18.99
2019-03-05T04:12:12.503Z,18.98
2019-03-05T04:13:12.580Z,18.98
2019-03-05T04:14:12.694Z,18.99
2019-03-05T04:15:12.875Z,18.96
2019-03-05T04:16:12.963Z,18.97
2019-03-05T04:17:12.732Z,18.98
2019-03-05T04:18:12.769Z,18.98
2019-03-05T04:19:12.850Z,18.96
2019-03-05T04:20:12.479Z,18.96
2019-03-05T04:21:12.583Z,18.97
2019-03-05T04:22:12.621Z,18.95
2019-03-05T04:23:12.518Z,18.96
2019-03-05T04:24:12.669Z,18.95
2019-03-05T04:25:12.563Z,18.96
2019-03-05T04:26:12.496Z,18.96
2019-03-05T04:27:12.597Z,18.96
2019-03-05T04:28:12.791Z,18.96
2019-03-05T04:29:12.589Z,18.94
2019-03-05T04:30:12.659Z,18.94
2019-03-05T04:31:12.614Z,18.96
2019-03-05T04:32:12.504Z,18.94
2019-03-05T04:33:12.672Z,18.95
2019-03-05T04:34:12.667Z,18.95
2019-03-05T04:35:12.453Z,18.93
2019-03-05T04:36:12.686Z,18.94
2019-03-05T04:37:13.201Z,18.94
2019-03-05T04:38:12.561Z,18.94
2019-03-05T04:39:12.635Z,18.95
2019-03-05T04:40:12.511Z,18.94
2019-03-05T04:41:12.828Z,18.92
2019-03-05T04:42:12.749Z,18.92
2019-03-05T04:43:12.598Z,18.91
2019-03-05T04:44:12.599Z,18.89
2019-03-05T04:45:12.681Z,18.91
2019-03-05T04:46:12.668Z,18.92
2019-03-05T04:47:12.540Z,18.91
2019-03-05T04:48:12.729Z,18.92
2019-03-05T04:49:12.548Z,18.91
2019-03-05T04:50:12.579Z,18.92
2019-03-05T04:51:12.499Z,18.91
2019-03-05T04:52:12.526Z,18.89
2019-03-05T04:53:12.622Z,18.91
2019-03-05T04:54:12.449Z,18.91
2019-03-05T04:55:12.578Z,18.88
2019-03-05T04:56:12.597Z,18.89
2019-03-05T04:57:12.589Z,18.89
2019-03-05T04:58:12.608Z,18.88
2019-03-05T04:59:12.643Z,18.88
2019-03-05T05:00:12.473Z,18.86
2019-03-05T05:01:12.591Z,18.86
2019-03-05T05:02:12.668Z,18.89
2019-03-05T05:03:12.437Z,18.88
2019-03-05T05:04:12.557Z,18.91
2019-03-05T05:05:12.678Z,18.86
2019-03-05T05:06:12.524Z,18.87
2019-03-05T05:07:12.626Z,18.88
2019-03-05T05:08:12.534Z,18.86
2019-03-05T05:09:12.518Z,18.86
2019-03-05T05:10:12.675Z,18.87
2019-03-05T05:11:12.469Z,18.84
2019-03-05T05:12:12.553Z,18.87
2019-03-05T05:13:12.670Z,18.86
2019-03-05T05:14:12.506Z,18.85
2019-03-05T05:15:12.594Z,18.85
2019-03-05T05:16:12.827Z,18.84
2019-03-05T05:17:12.526Z,18.83
2019-03-05T05:18:12.677Z,18.84
2019-03-05T05:19:12.666Z,18.85
2019-03-05T05:20:12.512Z,18.85
2019-03-05T05:21:12.572Z,18.84
2019-03-05T05:22:12.681Z,18.84
2019-03-05T05:23:12.692Z,18.84
2019-03-05T05:24:12.581Z,18.85
2019-03-05T05:25:12.372Z,18.84
2019-03-05T05:26:12.533Z,18.84
2019-03-05T05:27:12.605Z,18.84
2019-03-05T05:28:12.537Z,18.84
2019-03-05T05:29:12.628Z,18.82
2019-03-05T05:30:12.585Z,18.84
2019-03-05T05:31:12.446Z,18.83
2019-03-05T05:32:12.592Z,18.82
2019-03-05T05:33:12.630Z,18.84
2019-03-05T05:34:12.587Z,18.82
2019-03-05T05:35:12.598Z,18.81
2019-03-05T05:36:12.779Z,18.82
2019-03-05T05:37:12.470Z,18.83
2019-03-05T05:38:12.664Z,18.82
2019-03-05T05:39:12.664Z,18.82
2019-03-05T05:40:12.499Z,18.82
2019-03-05T05:41:12.613Z,18.83
2019-03-05T05:42:12.940Z,18.81
2019-03-05T05:43:12.526Z,18.81
2019-03-05T05:44:12.620Z,18.83
2019-03-05T05:45:12.491Z,18.8
2019-03-05T05:46:12.447Z,18.82
2019-03-05T05:47:12.658Z,18.82
2019-03-05T05:48:12.480Z,18.81
2019-03-05T05:49:12.624Z,18.81
2019-03-05T05:50:12.626Z,18.82
2019-03-05T05:51:12.564Z,18.8
2019-03-05T05:52:12.524Z,18.8
2019-03-05T05:53:12.649Z,18.78
2019-03-05T05:54:12.523Z,18.81
2019-03-05T05:55:12.546Z,18.78
2019-03-05T05:56:12.656Z,18.79
2019-03-05T05:57:12.503Z,18.79
2019-03-05T05:58:12.635Z,18.78
2019-03-05T05:59:12.676Z,18.79
2019-03-05T06:00:12.536Z,18.79
2019-03-05T06:01:12.563Z,18.81
2019-03-05T06:02:12.684Z,18.81
2019-03-05T06:03:12.529Z,18.77
2019-03-05T06:04:12.772Z,18.79
2019-03-05T06:05:12.749Z,18.79
2019-03-05T06:06:12.559Z,18.8
2019-03-05T06:07:12.591Z,18.77
2019-03-05T06:08:12.412Z,18.79
2019-03-05T06:09:12.673Z,18.79
2019-03-05T06:10:12.722Z,18.79
2019-03-05T06:11:12.612Z,18.79
2019-03-05T06:12:12.611Z,18.78
2019-03-05T06:13:12.653Z,18.79
2019-03-05T06:14:12.420Z,18.77
2019-03-05T06:15:12.590Z,18.78
2019-03-05T06:16:12.648Z,18.78
2019-03-05T06:17:12.479Z,18.77
2019-03-05T06:18:12.621Z,18.78
2019-03-05T06:19:12.534Z,18.78
2019-03-05T06:20:12.470Z,18.71
2019-03-05T06:21:12.649Z,18.66
2019-03-05T06:22:12.641Z,18.64
2019-03-05T06:23:12.503Z,18.56
2019-03-05T06:24:12.624Z,18.52
2019-03-05T06:25:13.254Z,18.46
2019-03-05T06:26:12.520Z,18.44
2019-03-05T06:27:12.578Z,18.41
2019-03-05T06:28:12.522Z,18.38
2019-03-05T06:29:12.502Z,18.33
2019-03-05T06:30:12.619Z,18.33
2019-03-05T06:31:12.468Z,18.21
2019-03-05T06:32:12.501Z,18.19
2019-03-05T06:33:12.581Z,18.19
2019-03-05T06:34:12.387Z,18.22
2019-03-05T06:35:12.449Z,18.22
2019-03-05T06:36:12.581Z,18.22
2019-03-05T06:37:12.614Z,18.24
2019-03-05T06:38:12.603Z,18.25
2019-03-05T06:39:12.636Z,18.26
2019-03-05T06:40:12.415Z,18.26
2019-03-05T06:41:12.504Z,18.29
2019-03-05T06:42:12.642Z,18.32
2019-03-05T06:43:12.396Z,18.35
2019-03-05T06:44:12.473Z,18.36
2019-03-05T06:45:12.669Z,18.38
2019-03-05T06:46:12.483Z,18.4
2019-03-05T06:47:12.495Z,18.46
2019-03-05T06:48:12.667Z,18.47
2019-03-05T06:49:12.629Z,18.5
2019-03-05T06:50:12.425Z,18.53
2019-03-05T06:51:12.590Z,18.54
2019-03-05T06:52:12.593Z,18.57
2019-03-05T06:53:12.481Z,18.59
2019-03-05T06:54:12.583Z,18.62
2019-03-05T06:55:12.363Z,18.65
2019-03-05T06:56:12.751Z,18.66
2019-03-05T06:57:12.618Z,18.68
2019-03-05T06:58:12.666Z,18.72
2019-03-05T06:59:12.564Z,18.72
2019-03-05T07:00:12.601Z,18.76
2019-03-05T07:01:12.507Z,18.78
2019-03-05T07:02:12.428Z,18.78
2019-03-05T07:03:12.614Z,18.82
2019-03-05T07:04:12.596Z,18.82
2019-03-05T07:05:12.508Z,18.84
2019-03-05T07:06:12.647Z,18.85
2019-03-05T07:07:12.454Z,18.88
2019-03-05T07:08:12.484Z,18.93
2019-03-05T07:09:12.949Z,18.92
2019-03-05T07:10:12.485Z,18.95
2019-03-05T07:11:12.492Z,18.97
2019-03-05T07:12:12.684Z,18.98
2019-03-05T07:13:12.504Z,18.98
2019-03-05T07:14:12.503Z,19.02
2019-03-05T07:15:12.820Z,19.05
2019-03-05T07:16:12.503Z,19.05
2019-03-05T07:17:12.472Z,19.06
2019-03-05T07:18:12.405Z,19.08
2019-03-05T07:19:12.481Z,19.1
2019-03-05T07:20:12.524Z,19.1
2019-03-05T07:21:12.633Z,19.1
2019-03-05T07:22:12.500Z,19.13
2019-03-05T07:23:12.487Z,19.15
2019-03-05T07:24:12.619Z,19.15
2019-03-05T07:25:12.642Z,19.16
2019-03-05T07:26:12.477Z,19.17
2019-03-05T07:27:12.742Z,19.17
2019-03-05T07:28:12.464Z,19.22
2019-03-05T07:29:13.018Z,19.24
2019-03-05T07:30:12.305Z,19.21
2019-03-05T07:31:12.481Z,19.24
2019-03-05T07:32:12.512Z,19.23
2019-03-05T07:33:12.430Z,19.27
2019-03-05T07:34:12.525Z,19.28
2019-03-05T07:35:12.508Z,19.3
2019-03-05T07:36:12.407Z,19.31
2019-03-05T07:37:12.507Z,19.31
2019-03-05T07:38:12.564Z,19.35
2019-03-05T07:39:12.523Z,19.35
2019-03-05T07:40:12.557Z,19.33
2019-03-05T07:41:12.671Z,19.36
2019-03-05T07:42:12.413Z,19.36
2019-03-05T07:43:12.603Z,19.37
2019-03-05T07:44:12.544Z,19.4
2019-03-05T07:45:12.405Z,19.39
2019-03-05T07:46:12.569Z,19.4
2019-03-05T07:47:12.575Z,19.41
2019-03-05T07:48:12.425Z,19.4
2019-03-05T07:49:12.537Z,19.39
2019-03-05T07:50:12.603Z,19.4
2019-03-05T07:51:12.428Z,19.4
2019-03-05T07:52:12.527Z,19.41
2019-03-05T07:53:12.585Z,19.42
2019-03-05T07:54:12.479Z,19.42
2019-03-05T07:55:14.447Z,19.45
2019-03-05T07:56:12.563Z,19.45
2019-03-05T07:57:12.421Z,19.45
2019-03-05T07:58:12.555Z,19.48
2019-03-05T07:59:12.560Z,19.5
2019-03-05T08:00:12.395Z,19.52
2019-03-05T08:01:22.925Z,19.53
2019-03-05T08:02:12.665Z,19.54
2019-03-05T08:03:12.546Z,19.54
2019-03-05T08:04:12.568Z,19.56
2019-03-05T08:05:12.589Z,19.57
2019-03-05T08:06:12.398Z,19.59
2019-03-05T08:07:12.552Z,19.58
2019-03-05T08:08:12.611Z,19.61
2019-03-05T08:09:12.416Z,19.61
2019-03-05T08:10:12.647Z,19.63
2019-03-05T08:11:12.591Z,19.62
2019-03-05T08:12:12.555Z,19.65
2019-03-05T08:13:12.726Z,19.65
2019-03-05T08:14:12.410Z,19.68
2019-03-05T08:15:12.455Z,19.66
2019-03-05T08:16:12.590Z,19.69
2019-03-05T08:17:12.458Z,19.7
2019-03-05T08:18:12.443Z,19.72
2019-03-05T08:19:12.542Z,19.71
2019-03-05T08:20:12.406Z,19.73
2019-03-05T08:21:12.451Z,19.73
2019-03-05T08:22:12.849Z,19.74
2019-03-05T08:23:12.399Z,19.73
2019-03-05T08:24:12.428Z,19.76
2019-03-05T08:25:12.581Z,19.75
2019-03-05T08:26:12.388Z,19.79
2019-03-05T08:27:12.459Z,19.77
2019-03-05T08:28:12.632Z,19.79
2019-03-05T08:29:12.406Z,19.8
2019-03-05T08:30:15.368Z,19.79
2019-03-05T08:31:12.688Z,19.82
2019-03-05T08:32:12.370Z,19.8
2019-03-05T08:33:12.456Z,19.82
2019-03-05T08:34:12.771Z,19.81
2019-03-05T08:35:12.770Z,19.82
2019-03-05T08:36:12.470Z,19.83
2019-03-05T08:37:13.811Z,19.82
2019-03-05T08:38:12.401Z,19.82
2019-03-05T08:39:12.482Z,19.83
2019-03-05T08:40:12.627Z,19.83
2019-03-05T08:41:12.397Z,19.82
2019-03-05T08:42:12.460Z,19.84
2019-03-05T08:43:12.539Z,19.84
2019-03-05T08:44:12.470Z,19.88
2019-03-05T08:45:12.487Z,19.86
2019-03-05T08:46:12.683Z,19.84
2019-03-05T08:47:12.481Z,19.85
2019-03-05T08:48:12.477Z,19.83
2019-03-05T08:49:12.615Z,19.86
2019-03-05T08:50:12.441Z,19.86
2019-03-05T08:51:12.462Z,19.85
2019-03-05T08:52:12.623Z,19.83
2019-03-05T08:53:12.478Z,19.84
2019-03-05T08:54:12.526Z,19.86
2019-03-05T08:55:12.592Z,19.85
2019-03-05T08:56:12.636Z,19.86
2019-03-05T08:57:12.480Z,19.87
2019-03-05T08:58:12.615Z,19.89
2019-03-05T08:59:12.480Z,19.9
2019-03-05T09:00:12.487Z,19.9
2019-03-05T09:01:12.586Z,19.94
2019-03-05T09:02:12.533Z,19.92
2019-03-05T09:03:12.508Z,19.95
2019-03-05T09:04:12.588Z,19.95
2019-03-05T09:05:12.434Z,19.94
2019-03-05T09:06:12.779Z,19.96
2019-03-05T09:07:12.654Z,19.96
2019-03-05T09:08:12.358Z,19.95
2019-03-05T09:09:12.459Z,19.97
2019-03-05T09:10:12.554Z,19.96
2019-03-05T09:11:12.430Z,19.96
2019-03-05T09:12:12.449Z,19.95
2019-03-05T09:13:12.575Z,19.95
2019-03-05T09:14:12.381Z,19.95
2019-03-05T09:15:12.469Z,19.97
2019-03-05T09:16:12.763Z,19.96
2019-03-05T09:17:12.361Z,19.96
2019-03-05T09:18:13.389Z,19.95
2019-03-05T09:19:12.324Z,19.98
2019-03-05T09:20:12.421Z,19.95
2019-03-05T09:21:12.473Z,19.98
2019-03-05T09:22:12.656Z,19.98
2019-03-05T09:23:12.487Z,20
2019-03-05T09:24:12.493Z,19.99
2019-03-05T09:25:12.322Z,20.01
2019-03-05T09:26:12.450Z,20.02
2019-03-05T09:27:12.511Z,20.02
2019-03-05T09:28:12.278Z,20.02
2019-03-05T09:29:12.524Z,20.02
2019-03-05T09:30:12.564Z,20.05
2019-03-05T09:31:12.405Z,20.06
2019-03-05T09:32:12.479Z,20.05
2019-03-05T09:33:12.574Z,20.02
2019-03-05T09:34:12.339Z,20.05
2019-03-05T09:35:12.475Z,20.03
2019-03-05T09:36:12.526Z,20.06
2019-03-05T09:37:12.391Z,20.07
2019-03-05T09:38:12.738Z,20.09
2019-03-05T09:39:12.649Z,20.11
2019-03-05T09:40:12.822Z,20.12
2019-03-05T09:41:12.436Z,20.14
2019-03-05T09:42:12.570Z,20.14
2019-03-05T09:43:12.492Z,20.17
2019-03-05T09:44:12.489Z,20.15
2019-03-05T09:45:12.407Z,20.18
2019-03-05T09:46:12.463Z,20.2
2019-03-05T09:47:12.570Z,20.2
2019-03-05T09:48:12.425Z,20.24
2019-03-05T09:49:12.331Z,20.21
2019-03-05T09:50:12.530Z,20.25
2019-03-05T09:51:12.343Z,20.27
2019-03-05T09:52:12.440Z,20.29
2019-03-05T09:53:12.542Z,20.3
2019-03-05T09:54:12.448Z,20.3
2019-03-05T09:55:12.423Z,20.3
2019-03-05T09:56:12.544Z,20.34
2019-03-05T09:57:12.429Z,20.33
2019-03-05T09:58:12.404Z,20.32
2019-03-05T09:59:12.585Z,20.34
2019-03-05T10:00:12.462Z,20.35
2019-03-05T10:01:12.626Z,20.35
2019-03-05T10:02:12.575Z,20.35
2019-03-05T10:03:12.390Z,20.39
2019-03-05T10:04:12.426Z,20.39
2019-03-05T10:05:12.598Z,20.4
2019-03-05T10:06:12.430Z,20.4
2019-03-05T10:07:19.651Z,20.42
2019-03-05T10:08:12.566Z,20.42
2019-03-05T10:09:12.424Z,20.43
2019-03-05T10:10:12.488Z,20.43
2019-03-05T10:11:12.609Z,20.45
2019-03-05T10:12:12.437Z,20.43
2019-03-05T10:13:13.699Z,20.44
2019-03-05T10:14:12.546Z,20.45
2019-03-05T10:15:12.423Z,20.47
2019-03-05T10:16:12.396Z,20.46
2019-03-05T10:17:12.585Z,20.47
2019-03-05T10:18:13.510Z,20.46
2019-03-05T10:19:12.470Z,20.49
2019-03-05T10:20:12.557Z,20.47
2019-03-05T10:21:12.442Z,20.48
2019-03-05T10:22:12.720Z,20.5
2019-03-05T10:23:12.648Z,20.53
2019-03-05T10:24:12.767Z,20.55
2019-03-05T10:25:13.206Z,20.55
2019-03-05T10:26:12.446Z,20.55
2019-03-05T10:27:12.635Z,20.57
2019-03-05T10:28:12.352Z,20.57
2019-03-05T10:29:12.521Z,20.57
2019-03-05T10:30:12.631Z,20.58
2019-03-05T10:31:12.414Z,20.58
2019-03-05T10:32:12.498Z,20.61
2019-03-05T10:33:12.296Z,20.6
2019-03-05T10:34:12.325Z,20.61
2019-03-05T10:35:12.450Z,20.63
2019-03-05T10:36:12.561Z,20.65
2019-03-05T10:37:19.341Z,20.65
2019-03-05T10:38:12.578Z,20.66
2019-03-05T10:39:12.348Z,20.65
2019-03-05T10:40:12.346Z,20.66
2019-03-05T10:41:12.493Z,20.69
2019-03-05T10:42:12.560Z,20.71
2019-03-05T10:43:12.431Z,20.71
2019-03-05T10:44:12.428Z,20.71
2019-03-05T10:45:12.554Z,20.7
2019-03-05T10:46:12.337Z,20.71
2019-03-05T10:47:12.503Z,20.73
2019-03-05T10:48:12.535Z,20.74
2019-03-05T10:49:12.336Z,20.75
2019-03-05T10:50:15.985Z,20.76
2019-03-05T10:51:12.525Z,20.75
2019-03-05T10:52:12.265Z,20.77
2019-03-05T10:53:12.552Z,20.78
2019-03-05T10:54:12.478Z,20.78
2019-03-05T10:55:12.313Z,20.77
2019-03-05T10:56:12.461Z,20.78
2019-03-05T10:57:12.499Z,20.79
2019-03-05T10:58:12.441Z,20.78
2019-03-05T10:59:12.443Z,20.8
2019-03-05T11:00:12.508Z,20.79
2019-03-05T11:01:12.437Z,20.79
2019-03-05T11:02:12.503Z,20.79
2019-03-05T11:03:12.467Z,20.8
2019-03-05T11:04:12.398Z,20.8
2019-03-05T11:05:12.561Z,20.79
2019-03-05T11:06:12.373Z,20.81
2019-03-05T11:07:12.358Z,20.84
2019-03-05T11:08:12.525Z,20.85
2019-03-05T11:09:12.579Z,20.87
2019-03-05T11:10:12.352Z,20.88
2019-03-05T11:11:14.419Z,20.87
2019-03-05T11:12:12.402Z,20.88
2019-03-05T11:13:12.420Z,20.88
2019-03-05T11:14:12.702Z,20.9
2019-03-05T11:15:12.344Z,20.9
2019-03-05T11:16:12.419Z,20.91
2019-03-05T11:17:12.543Z,20.93
2019-03-05T11:18:12.457Z,20.93
2019-03-05T11:19:12.409Z,20.93
2019-03-05T11:20:12.563Z,20.93
2019-03-05T11:21:12.396Z,20.93
2019-03-05T11:22:12.441Z,20.94
2019-03-05T11:23:12.667Z,20.95
2019-03-05T11:24:12.420Z,20.95
2019-03-05T11:25:12.500Z,20.96
2019-03-05T11:26:12.488Z,20.96
2019-03-05T11:27:12.574Z,21
2019-03-05T11:28:12.492Z,20.99
2019-03-05T11:29:12.627Z,21.03
2019-03-05T11:30:12.606Z,21.02
2019-03-05T11:31:12.465Z,21.02
2019-03-05T11:32:12.363Z,21.03
2019-03-05T11:33:12.419Z,21.04
2019-03-05T11:34:13.562Z,21.04
2019-03-05T11:35:12.291Z,21.06
2019-03-05T11:36:12.480Z,21.05
2019-03-05T11:37:12.521Z,21.07
2019-03-05T11:38:12.366Z,21.07
2019-03-05T11:39:13.266Z,21.09
2019-03-05T11:40:21.566Z,21.09
2019-03-05T11:41:12.257Z,21.11
2019-03-05T11:42:12.538Z,21.14
2019-03-05T11:43:13.107Z,21.13
2019-03-05T11:44:12.289Z,21.14
2019-03-05T11:45:12.486Z,21.13
2019-03-05T11:46:12.497Z,21.15
2019-03-05T11:47:12.440Z,21.16
2019-03-05T11:48:12.520Z,21.14
2019-03-05T11:49:12.742Z,21.14
2019-03-05T11:50:12.423Z,21.15
2019-03-05T11:51:12.493Z,21.16
2019-03-05T11:52:12.464Z,21.15
2019-03-05T11:53:12.361Z,21.15
2019-03-05T11:54:12.435Z,21.17
2019-03-05T11:55:12.579Z,21.17
2019-03-05T11:56:12.353Z,21.17
2019-03-05T11:57:12.489Z,21.18
2019-03-05T11:58:12.492Z,21.2
2019-03-05T11:59:12.470Z,21.2
2019-03-05T12:00:12.478Z,21.18
2019-03-05T12:01:12.481Z,21.21
2019-03-05T12:02:22.331Z,21.23
2019-03-05T12:03:12.393Z,21.21
2019-03-05T12:04:12.334Z,21.24
2019-03-05T12:05:12.546Z,21.28
2019-03-05T12:06:12.514Z,21.28
2019-03-05T12:07:12.542Z,21.28
2019-03-05T12:08:12.543Z,21.28
2019-03-05T12:09:29.582Z,21.28
2019-03-05T12:10:12.557Z,21.31
2019-03-05T12:11:12.430Z,21.3
2019-03-05T12:12:12.489Z,21.32
2019-03-05T12:13:14.945Z,21.31
2019-03-05T12:14:12.470Z,21.3
2019-03-05T12:15:12.493Z,21.29
2019-03-05T12:16:12.339Z,21.27
2019-03-05T12:17:12.426Z,21.25
2019-03-05T12:18:12.491Z,21.25
2019-03-05T12:19:12.326Z,21.24
2019-03-05T12:20:12.424Z,21.27
2019-03-05T12:21:12.504Z,21.27
2019-03-05T12:22:12.261Z,21.24
2019-03-05T12:23:12.468Z,21.25
2019-03-05T12:24:12.595Z,21.24
2019-03-05T12:25:12.335Z,21.23
2019-03-05T12:26:12.511Z,21.23
2019-03-05T12:27:12.742Z,21.27
2019-03-05T12:28:12.294Z,21.27
2019-03-05T12:29:12.371Z,21.28
2019-03-05T12:30:12.432Z,21.3
2019-03-05T12:31:12.343Z,21.29
2019-03-05T12:32:15.588Z,21.27
2019-03-05T12:33:12.488Z,21.29
2019-03-05T12:34:12.425Z,21.32
2019-03-05T12:35:12.508Z,21.31
2019-03-05T12:36:12.290Z,21.31
2019-03-05T12:37:12.311Z,21.31
2019-03-05T12:38:12.507Z,21.32
2019-03-05T12:39:12.372Z,21.32
2019-03-05T12:40:12.366Z,21.32
2019-03-05T12:41:12.697Z,21.33
2019-03-05T12:42:12.300Z,21.33
2019-03-05T12:43:12.320Z,21.33
2019-03-05T12:44:12.475Z,21.34
2019-03-05T12:45:12.337Z,21.33
2019-03-05T12:46:12.495Z,21.35
2019-03-05T12:47:12.457Z,21.35
2019-03-05T12:48:12.536Z,21.35
2019-03-05T12:49:12.345Z,21.36
2019-03-05T12:50:12.464Z,21.36
2019-03-05T12:51:12.347Z,21.35
2019-03-05T12:52:12.380Z,21.34
2019-03-05T12:53:12.586Z,21.36
2019-03-05T12:54:12.406Z,21.39
2019-03-05T12:55:13.613Z,21.39